Time;durP1;ratioP1;P1;durP2;ratioP2;P2;SDS_P1;SDS_P2;PMS_P1;PMS_P2;Temp;Humidity;BMP_temperature;BMP_pressure;BME280_temperature;BME280_humidity;BME280_pressure;Samples;Min_cycle;Max_cycle;Signal;HPM_P1;HPM_P2
2022/07/04 00:00:51;;;;;;;13.73;5.13;;;;;;;22.03;61.95;100827.41;5000655;28;20045;-85
2022/07/04 00:03:16;;;;;;;11.70;5.25;;;;;;;22.08;61.89;100835.88;5001836;28;20094;-85
2022/07/04 00:05:42;;;;;;;16.73;5.30;;;;;;;22.13;61.49;100838.91;4994803;28;20030;-85
2022/07/04 00:08:07;;;;;;;10.40;5.18;;;;;;;22.19;61.38;100846.34;4995090;28;20049;-86
2022/07/04 00:10:33;;;;;;;11.15;4.90;;;;;;;22.22;60.90;100848.69;4994706;28;20030;-86
2022/07/04 00:12:58;;;;;;;13.35;6.72;;;;;;;22.19;59.30;100851.81;4994780;28;20037;-87
2022/07/04 00:15:24;;;;;;;14.98;4.65;;;;;;;22.22;59.62;100854.19;5003471;28;20034;-86
2022/07/04 00:17:50;;;;;;;12.93;5.57;;;;;;;22.17;59.62;100843.78;5001480;28;20030;-86
2022/07/04 00:20:16;;;;;;;11.23;5.57;;;;;;;22.20;59.63;100850.75;5007689;28;20045;-87
2022/07/04 00:22:42;;;;;;;11.60;4.28;;;;;;;22.18;58.53;100850.97;5005705;28;20038;-86
2022/07/04 00:25:08;;;;;;;8.55;4.22;;;;;;;22.18;57.27;100837.28;5004980;28;20106;-86
2022/07/04 00:27:33;;;;;;;7.43;4.32;;;;;;;22.15;56.66;100839.53;4999333;28;20026;-86
2022/07/04 00:30:00;;;;;;;11.15;4.30;;;;;;;22.14;56.70;100837.84;4995297;28;20393;-86
2022/07/04 00:32:25;;;;;;;8.55;3.97;;;;;;;22.10;55.09;100828.34;4995039;28;20038;-86
2022/07/04 00:34:50;;;;;;;8.23;3.80;;;;;;;22.03;54.68;100832.88;4995085;28;20460;-86
2022/07/04 00:37:16;;;;;;;14.00;4.15;;;;;;;22.03;54.61;100835.63;4994538;28;20022;-85
2022/07/04 00:39:42;;;;;;;7.50;4.03;;;;;;;22.04;55.23;100829.09;4995167;28;20026;-85
2022/07/04 00:42:08;;;;;;;9.18;3.97;;;;;;;21.96;55.36;100823.72;4994587;28;20396;-86
2022/07/04 00:44:36;;;;;;;10.70;3.13;;;;;;;21.92;53.23;100831.53;4994743;28;20361;-86
2022/07/04 00:47:06;;;;;;;6.75;3.88;;;;;;;21.91;52.47;100829.81;4995163;28;20087;-85
2022/07/04 00:49:32;;;;;;;6.82;3.35;;;;;;;21.91;51.94;100828.94;4994379;28;20054;-86
2022/07/04 00:51:59;;;;;;;10.05;3.22;;;;;;;21.84;51.96;100833.47;4994706;28;20026;-86
2022/07/04 00:54:27;;;;;;;8.32;3.40;;;;;;;21.83;51.21;100826.31;4976924;28;20470;-85
2022/07/04 00:56:54;;;;;;;4.88;3.17;;;;;;;21.88;50.72;100830.19;4995177;28;20030;-86
2022/07/04 00:59:20;;;;;;;5.40;3.17;;;;;;;21.83;51.56;100831.78;4995042;28;20034;-85
2022/07/04 01:01:45;;;;;;;6.68;3.58;;;;;;;21.80;52.79;100826.69;4995530;28;20039;-86
2022/07/04 01:04:11;;;;;;;9.05;4.03;;;;;;;21.77;54.10;100827.94;4994679;28;20034;-85
2022/07/04 01:06:37;;;;;;;22.15;4.80;;;;;;;21.76;54.63;100828.97;4994709;28;20029;-85
2022/07/04 01:09:04;;;;;;;14.27;4.88;;;;;;;21.74;55.71;100824.72;4996733;28;20069;-86
2022/07/04 01:11:29;;;;;;;10.00;4.63;;;;;;;21.71;55.78;100821.31;5015569;28;20034;-85
2022/07/04 01:13:56;;;;;;;8.25;4.55;;;;;;;21.66;55.61;100821.06;4996964;28;20522;-87
2022/07/04 01:16:21;;;;;;;9.18;4.80;;;;;;;21.67;55.43;100827.38;4994155;28;20038;-86
2022/07/04 01:18:47;;;;;;;5.07;3.70;;;;;;;21.67;55.82;100832.84;4994373;28;20503;-86
2022/07/04 01:21:13;;;;;;;10.68;4.68;;;;;;;21.69;56.01;100826.16;4994801;28;20022;-86
2022/07/04 01:23:39;;;;;;;7.65;4.57;;;;;;;21.67;56.04;100822.75;4994767;28;20037;-86
2022/07/04 01:26:05;;;;;;;6.80;3.83;;;;;;;21.73;54.96;100825.75;4976417;28;20023;-86
2022/07/04 01:28:31;;;;;;;7.93;4.25;;;;;;;21.73;54.39;100825.75;4994357;28;20087;-86
2022/07/04 01:30:57;;;;;;;15.25;4.60;;;;;;;21.70;53.77;100816.91;4994262;28;20085;-86
2022/07/04 01:33:22;;;;;;;6.88;4.03;;;;;;;21.75;53.82;100824.53;4994419;28;20408;-86
2022/07/04 01:35:48;;;;;;;7.60;3.08;;;;;;;21.78;53.05;100823.28;4994358;28;20026;-86
2022/07/04 01:38:14;;;;;;;10.45;3.60;;;;;;;21.76;52.15;100825.38;4976833;28;20034;-86
2022/07/04 01:40:39;;;;;;;7.45;3.33;;;;;;;21.80;50.63;100838.50;4994003;28;20447;-86
2022/07/04 01:43:05;;;;;;;8.02;3.70;;;;;;;21.71;50.31;100831.44;5002773;28;20125;-85
2022/07/04 01:45:37;;;;;;;7.55;4.47;;;;;;;21.73;50.75;100831.22;4988206;28;20030;-85
2022/07/04 01:48:05;;;;;;;22.90;4.40;;;;;;;21.74;52.39;100831.06;5005054;28;20033;-85
2022/07/04 01:50:30;;;;;;;14.93;4.88;;;;;;;21.70;53.21;100825.13;4996299;28;20046;-85
2022/07/04 01:52:56;;;;;;;12.43;5.85;;;;;;;21.80;53.91;100834.91;4993682;28;20496;-85
2022/07/04 01:55:21;;;;;;;17.15;5.45;;;;;;;21.81;54.53;100837.44;4993961;28;20110;-85
2022/07/04 01:57:46;;;;;;;20.40;5.00;;;;;;;21.83;54.81;100840.84;4994537;28;20037;-84
2022/07/04 02:03:01;;;;;;;15.30;5.30;;;;;;;21.82;55.38;100846.50;4969151;28;20065;-85
2022/07/04 02:05:26;;;;;;;12.27;6.13;;;;;;;21.82;55.44;100846.50;4996683;28;20465;-84
2022/07/04 02:07:52;;;;;;;17.35;6.03;;;;;;;21.83;55.52;100840.00;4997314;28;20030;-86
2022/07/04 02:10:18;;;;;;;20.85;7.25;;;;;;;21.79;55.74;100836.78;4997098;28;20543;-84
2022/07/04 02:13:01;;;;;;;18.42;7.25;;;;;;;21.75;56.06;100826.41;4997276;28;20022;-84
2022/07/04 02:15:33;;;;;;;16.80;6.22;;;;;;;21.79;56.56;100835.94;4996893;28;20034;-85
2022/07/04 02:17:59;;;;;;;36.67;10.40;;;;;;;21.73;56.30;100825.75;4981067;28;20034;-85
2022/07/04 02:20:25;;;;;;;13.50;6.53;;;;;;;21.80;56.23;100845.88;4997244;28;20084;-86
2022/07/04 02:22:52;;;;;;;13.45;6.28;;;;;;;21.74;55.74;100828.31;4997312;28;20039;-85
2022/07/04 02:25:17;;;;;;;14.25;6.60;;;;;;;21.78;55.29;100851.53;4996848;28;20026;-85
2022/07/04 02:27:43;;;;;;;20.60;6.88;;;;;;;21.73;53.74;100847.66;4997340;28;20031;-85
2022/07/04 02:30:09;;;;;;;10.77;4.72;;;;;;;21.69;53.65;100837.09;4997145;28;20037;-85
2022/07/04 02:32:35;;;;;;;8.32;5.40;;;;;;;21.79;53.60;100849.63;4996994;28;20141;-86
2022/07/04 02:35:01;;;;;;;9.38;5.53;;;;;;;21.83;53.98;100856.44;4996812;28;20042;-85
2022/07/04 02:37:27;;;;;;;10.70;4.88;;;;;;;21.81;54.26;100853.88;4997192;28;20058;-85
2022/07/04 02:39:52;;;;;;;18.20;6.28;;;;;;;21.80;54.25;100860.41;4979784;28;20026;-86
2022/07/04 02:42:17;;;;;;;20.58;5.35;;;;;;;21.79;54.10;100853.22;4997647;28;20403;-85
2022/07/04 02:44:44;;;;;;;15.38;5.90;;;;;;;21.83;54.07;100860.03;4997715;28;20025;-85
2022/07/04 02:47:09;;;;;;;14.85;6.10;;;;;;;21.74;54.08;100836.53;5007448;28;20021;-85
2022/07/04 02:49:35;;;;;;;12.95;4.95;;;;;;;21.71;54.29;100856.91;5010475;28;20050;-87
2022/07/04 02:52:00;;;;;;;8.45;5.43;;;;;;;21.69;54.15;100853.53;4997633;28;20476;-86
2022/07/04 02:54:26;;;;;;;16.55;6.25;;;;;;;21.70;54.37;100866.19;4997456;28;20116;-87
2022/07/04 02:56:51;;;;;;;20.63;7.10;;;;;;;21.71;54.03;100873.34;5005370;28;20026;-85
2022/07/04 02:59:16;;;;;;;12.32;5.00;;;;;;;21.75;54.17;100867.47;5005068;28;20045;-85
2022/07/04 03:01:42;;;;;;;18.55;7.35;;;;;;;21.71;54.61;100867.84;4997507;28;20026;-88
2022/07/04 03:04:08;;;;;;;34.13;6.32;;;;;;;21.57;55.54;100871.47;4996754;28;20026;-86
2022/07/04 03:06:33;;;;;;;15.00;6.72;;;;;;;21.47;56.06;100875.53;4996561;28;20026;-86
2022/07/04 03:08:59;;;;;;;23.70;7.43;;;;;;;21.47;56.43;100886.47;4997616;28;20041;-85
2022/07/04 03:11:24;;;;;;;15.57;6.88;;;;;;;21.48;56.90;100880.81;5005941;28;20030;-86
2022/07/04 03:13:50;;;;;;;24.00;8.77;;;;;;;21.45;57.01;100886.69;5006346;28;20053;-85
2022/07/04 03:16:16;;;;;;;21.63;7.20;;;;;;;21.41;57.17;100884.50;5011500;28;20484;-86
2022/07/04 03:18:42;;;;;;;25.83;7.63;;;;;;;21.39;57.18;100890.16;5005401;28;20034;-86
2022/07/04 03:21:07;;;;;;;19.77;6.28;;;;;;;21.45;56.99;100878.47;5004650;28;20085;-86
2022/07/04 03:23:34;;;;;;;23.73;7.10;;;;;;;21.40;56.72;100886.41;4997663;28;20088;-86
2022/07/04 03:26:00;;;;;;;23.38;5.90;;;;;;;21.40;56.50;100886.41;4996155;28;20033;-85
2022/07/04 03:28:26;;;;;;;19.42;5.38;;;;;;;21.40;55.86;100891.03;4996300;28;20027;-87
2022/07/04 03:30:52;;;;;;;14.45;5.20;;;;;;;21.35;54.67;100888.84;4996232;28;20416;-85
2022/07/04 03:33:17;;;;;;;14.48;5.47;;;;;;;21.37;53.99;100886.78;4995816;28;20041;-85
2022/07/04 03:35:43;;;;;;;18.98;5.03;;;;;;;21.39;53.25;100892.06;4995601;28;20073;-86
2022/07/04 03:38:08;;;;;;;26.90;6.57;;;;;;;21.40;53.42;100886.41;4996249;28;20026;-86
2022/07/04 03:40:35;;;;;;;18.58;4.85;;;;;;;21.39;53.75;100881.97;4996130;28;20022;-85
2022/07/04 03:43:02;;;;;;;20.75;6.13;;;;;;;21.39;53.63;100879.22;4996278;28;20034;-87
2022/07/04 03:45:28;;;;;;;10.88;5.32;;;;;;;21.39;53.55;100887.44;4978670;28;20118;-87
2022/07/04 03:47:54;;;;;;;14.50;5.03;;;;;;;21.43;53.56;100875.09;4995432;28;20101;-85
2022/07/04 03:50:20;;;;;;;11.35;5.35;;;;;;;21.49;53.49;100877.06;4994275;28;20547;-86
2022/07/04 03:52:45;;;;;;;17.15;5.82;;;;;;;21.51;53.73;100877.72;4995606;28;20483;-85
2022/07/04 03:55:11;;;;;;;12.70;5.63;;;;;;;21.45;54.01;100862.03;4995418;28;20030;-86
2022/07/04 03:57:36;;;;;;;15.18;6.45;;;;;;;21.51;54.14;100866.75;4995904;28;20491;-87
2022/07/04 04:00:04;;;;;;;24.88;6.68;;;;;;;21.59;54.87;100874.00;4996214;28;20030;-86
2022/07/04 04:02:29;;;;;;;35.85;8.90;;;;;;;21.68;55.16;100876.47;4995605;28;20033;-86
2022/07/04 04:07:39;;;;;;;17.60;6.50;;;;;;;21.81;54.96;100883.13;4996620;28;20084;-86
2022/07/04 04:10:05;;;;;;;26.13;6.68;;;;;;;21.86;55.07;100873.34;4996119;28;20025;-86
2022/07/04 04:12:30;;;;;;;21.85;7.32;;;;;;;21.84;55.15;100872.66;4995529;28;20038;-86
2022/07/04 04:14:56;;;;;;;19.30;5.85;;;;;;;21.93;55.31;100878.91;4995885;28;20411;-86
2022/07/04 04:17:21;;;;;;;27.77;6.88;;;;;;;22.02;55.37;100878.59;4995377;28;20034;-86
2022/07/04 04:19:47;;;;;;;22.73;7.57;;;;;;;22.05;55.61;100880.09;4995114;28;20037;-86
2022/07/04 04:22:12;;;;;;;31.05;7.20;;;;;;;22.05;55.79;100867.25;4995730;28;20026;-86
2022/07/04 04:24:38;;;;;;;17.27;6.65;;;;;;;22.22;55.74;100884.31;5010467;28;20027;-85
2022/07/04 04:27:04;;;;;;;38.47;7.78;;;;;;;22.25;55.27;100875.72;4997521;28;20033;-86
2022/07/04 04:29:29;;;;;;;15.95;6.47;;;;;;;22.34;54.99;100879.16;4994646;28;20495;-86
2022/07/04 04:31:54;;;;;;;20.52;5.88;;;;;;;22.39;55.22;100877.53;4995160;28;20038;-86
2022/07/04 04:34:20;;;;;;;24.30;6.15;;;;;;;22.47;55.32;100876.56;4994448;28;20166;-86
2022/07/04 04:36:45;;;;;;;13.13;6.15;;;;;;;22.53;55.61;100865.66;4994463;28;20026;-85
2022/07/04 04:39:11;;;;;;;25.88;6.80;;;;;;;22.64;55.41;100876.09;5004353;28;20125;-86
2022/07/04 04:41:36;;;;;;;35.55;7.78;;;;;;;22.72;55.52;100870.50;5003508;28;20026;-85
2022/07/04 04:44:02;;;;;;;25.50;7.07;;;;;;;22.77;55.87;100876.25;5005349;28;20034;-86
2022/07/04 04:46:27;;;;;;;29.85;7.10;;;;;;;22.87;56.22;100866.84;4998118;28;20026;-87
2022/07/04 04:48:53;;;;;;;42.78;10.40;;;;;;;22.99;56.31;100874.31;4995604;28;20046;-88
2022/07/04 04:51:18;;;;;;;52.60;9.75;;;;;;;23.10;56.07;100876.50;4994823;28;20087;-79
2022/07/04 04:53:43;;;;;;;32.45;7.93;;;;;;;23.19;56.29;100858.84;4993341;28;20018;-77
2022/07/04 04:56:09;;;;;;;26.60;8.68;;;;;;;23.26;56.23;100859.75;4994546;28;20026;-93
2022/07/04 04:58:34;;;;;;;30.38;8.45;;;;;;;23.43;56.63;100878.63;4994895;28;20022;-90
2022/07/04 05:01:02;;;;;;;48.88;9.50;;;;;;;23.54;56.59;100867.97;4993716;28;20034;-85
2022/07/04 05:03:28;;;;;;;24.98;8.43;;;;;;;23.64;56.63;100862.91;4993355;28;20026;-79
2022/07/04 05:05:53;;;;;;;25.05;8.13;;;;;;;23.75;56.85;100876.09;4992366;28;20461;-78
2022/07/04 05:08:19;;;;;;;31.45;9.23;;;;;;;23.88;56.87;100874.44;4992554;28;20475;-79
2022/07/04 05:10:44;;;;;;;33.63;8.38;;;;;;;23.92;57.08;100884.81;4992718;28;20451;-78
2022/07/04 05:13:10;;;;;;;29.35;9.02;;;;;;;24.03;56.39;100884.25;4992939;28;20031;-79
2022/07/04 05:15:35;;;;;;;43.50;8.63;;;;;;;24.03;56.12;100870.50;4992976;28;20157;-79
2022/07/04 05:18:01;;;;;;;25.60;6.70;;;;;;;24.18;56.14;100871.22;4992740;28;20034;-78
2022/07/04 05:20:26;;;;;;;26.35;5.90;;;;;;;24.39;55.52;100878.44;4992209;28;20380;-79
2022/07/04 05:22:52;;;;;;;50.22;7.72;;;;;;;24.42;55.38;100861.53;4992802;28;20113;-85
2022/07/04 05:25:17;;;;;;;14.43;4.80;;;;;;;24.58;55.06;100877.63;4993259;28;20030;-85
2022/07/04 05:27:42;;;;;;;20.90;4.60;;;;;;;24.62;55.18;100878.88;4993427;28;20115;-87
2022/07/04 05:30:09;;;;;;;23.48;5.72;;;;;;;24.72;55.02;100881.22;4994724;28;20030;-81
2022/07/04 05:32:39;;;;;;;32.67;7.47;;;;;;;24.75;55.11;100887.16;4975282;28;20030;-83
2022/07/04 05:35:06;;;;;;;29.23;14.32;;;;;;;24.75;55.00;100878.06;4992502;28;20030;-82
2022/07/04 05:37:31;;;;;;;30.60;9.10;;;;;;;24.78;55.36;100875.72;4992922;28;20034;-83
2022/07/04 05:39:57;;;;;;;11.60;5.57;;;;;;;24.88;55.41;100889.97;4992451;28;20113;-82
2022/07/04 05:42:22;;;;;;;14.82;5.50;;;;;;;24.96;56.26;100896.28;4992410;28;20074;-82
2022/07/04 05:44:48;;;;;;;14.13;5.80;;;;;;;24.85;57.15;100889.53;4992439;28;20018;-81
2022/07/04 05:47:14;;;;;;;26.70;4.97;;;;;;;24.94;57.43;100890.16;4974119;28;20362;-81
2022/07/04 05:49:39;;;;;;;26.58;5.10;;;;;;;24.99;57.66;100895.84;4991513;28;20117;-81
2022/07/04 05:52:05;;;;;;;13.35;4.25;;;;;;;25.00;57.91;100886.56;4992156;28;20620;-80
2022/07/04 05:54:31;;;;;;;14.52;4.68;;;;;;;25.00;58.46;100892.91;4992283;28;20041;-81
2022/07/04 05:56:56;;;;;;;10.80;4.40;;;;;;;25.01;57.89;100897.38;4992730;28;20030;-81
2022/07/04 05:59:21;;;;;;;18.92;4.90;;;;;;;24.92;58.04;100885.69;4993392;28;20030;-81
2022/07/04 06:01:47;;;;;;;18.70;5.07;;;;;;;25.02;58.32;100903.69;5021528;28;20030;-83
2022/07/04 06:04:12;;;;;;;23.75;5.15;;;;;;;25.08;57.86;100905.59;5026702;28;20045;-81
2022/07/04 06:06:38;;;;;;;26.27;6.00;;;;;;;25.17;57.14;100916.19;5013136;28;20165;-80
2022/07/04 06:09:03;;;;;;;26.33;7.03;;;;;;;25.21;57.39;100909.19;5018740;28;20026;-80
2022/07/04 06:11:29;;;;;;;34.10;6.95;;;;;;;25.20;57.33;100914.91;5020292;28;20411;-80
2022/07/04 06:13:55;;;;;;;28.55;5.97;;;;;;;25.16;56.26;100905.41;5019956;28;20108;-86
2022/07/04 06:16:20;;;;;;;8.93;4.53;;;;;;;25.20;56.68;100909.41;5018910;28;20112;-85
2022/07/04 06:18:46;;;;;;;12.63;4.03;;;;;;;25.18;56.17;100915.13;5015210;28;20113;-81
2022/07/04 06:21:12;;;;;;;12.55;4.43;;;;;;;25.36;55.99;100919.97;5016685;28;20030;-80
2022/07/04 06:23:37;;;;;;;10.60;3.83;;;;;;;25.37;55.94;100917.03;5014057;28;20080;-81
2022/07/04 06:26:03;;;;;;;8.38;3.78;;;;;;;25.41;55.80;100906.44;5011536;28;20014;-79
2022/07/04 06:28:29;;;;;;;26.35;4.40;;;;;;;25.45;55.58;100913.19;5011944;28;20083;-82
2022/07/04 06:30:54;;;;;;;14.07;3.92;;;;;;;25.49;55.77;100914.50;5012145;28;20026;-85
2022/07/04 06:33:20;;;;;;;21.60;4.95;;;;;;;25.49;55.61;100908.97;5012773;28;20531;-80
2022/07/04 06:35:45;;;;;;;15.23;4.25;;;;;;;25.55;55.44;100908.13;5011884;28;20036;-81
2022/07/04 06:38:25;;;;;;;13.00;4.47;;;;;;;25.51;55.41;100901.34;5011515;28;20057;-81
2022/07/04 06:40:54;;;;;;;18.55;3.42;;;;;;;25.50;55.58;100899.66;5011671;28;20030;-81
2022/07/04 06:43:19;;;;;;;9.00;4.15;;;;;;;25.50;55.79;100898.81;5012141;28;20048;-82
2022/07/04 06:45:45;;;;;;;15.80;3.88;;;;;;;25.56;55.47;100900.72;4994331;28;20122;-80
2022/07/04 06:48:10;;;;;;;23.05;3.72;;;;;;;25.45;55.77;100891.16;5013551;28;20119;-82
2022/07/04 06:50:36;;;;;;;12.35;4.90;;;;;;;25.50;56.19;100904.31;5015447;28;20058;-81
2022/07/04 06:53:03;;;;;;;16.13;3.25;;;;;;;25.52;55.92;100900.28;5014170;28;20041;-80
2022/07/04 06:55:39;;;;;;;17.13;4.03;;;;;;;25.45;56.30;100908.53;5014175;28;20022;-79
2022/07/04 06:58:06;;;;;;;14.70;3.58;;;;;;;25.51;56.65;100906.84;5014228;28;20111;-80
2022/07/04 07:00:31;;;;;;;11.30;3.78;;;;;;;25.58;57.02;100904.94;5006091;28;20120;-80
2022/07/04 07:02:58;;;;;;;16.10;4.45;;;;;;;25.65;56.89;100913.19;4994051;28;20098;-80
2022/07/04 07:05:27;;;;;;;9.55;3.58;;;;;;;25.71;56.94;100912.31;4994328;28;20177;-81
2022/07/04 07:07:53;;;;;;;10.70;6.05;;;;;;;25.80;56.90;100920.13;4995225;28;20058;-80
2022/07/04 07:10:19;;;;;;;9.43;2.90;;;;;;;25.87;56.36;100918.19;4995708;28;20026;-80
2022/07/04 07:12:45;;;;;;;8.75;3.05;;;;;;;25.87;56.34;100918.19;4977869;28;20030;-80
2022/07/04 07:15:11;;;;;;;18.33;3.83;;;;;;;25.91;56.44;100908.41;4994511;28;20034;-81
2022/07/04 07:17:36;;;;;;;16.17;3.60;;;;;;;26.02;55.95;100914.31;4976940;28;20507;-81
2022/07/04 07:20:03;;;;;;;10.07;3.78;;;;;;;25.88;56.07;100917.13;4977596;28;20034;-80
2022/07/04 07:22:29;;;;;;;9.20;3.20;;;;;;;25.80;56.51;100900.84;4994636;28;20100;-81
2022/07/04 07:24:54;;;;;;;23.00;5.03;;;;;;;25.97;57.09;100907.56;4994320;28;20472;-81
2022/07/04 07:27:20;;;;;;;9.35;3.72;;;;;;;26.04;56.82;100912.19;4994358;28;20061;-81
2022/07/04 07:29:45;;;;;;;10.93;4.35;;;;;;;26.09;56.72;100912.38;4994081;28;20041;-80
2022/07/04 07:32:10;;;;;;;11.80;3.45;;;;;;;26.12;56.23;100914.69;4994760;28;20060;-81
2022/07/04 07:34:36;;;;;;;15.73;3.35;;;;;;;26.20;56.32;100903.47;4995605;28;20080;-81
2022/07/04 07:37:02;;;;;;;8.48;3.60;;;;;;;26.24;56.50;100900.03;4995180;28;20112;-80
2022/07/04 07:39:27;;;;;;;6.93;2.75;;;;;;;26.29;56.42;100902.13;4996691;28;20115;-80
2022/07/04 07:41:53;;;;;;;14.52;3.40;;;;;;;26.34;56.22;100907.81;4999948;28;20037;-81
2022/07/04 07:44:18;;;;;;;11.73;5.25;;;;;;;26.33;56.20;100906.13;5000339;28;20038;-80
2022/07/04 07:46:44;;;;;;;7.75;3.28;;;;;;;26.17;56.79;100903.91;4998174;28;20026;-80
2022/07/04 07:49:09;;;;;;;14.05;4.40;;;;;;;26.17;57.08;100901.13;4996869;28;20137;-81
2022/07/04 07:51:35;;;;;;;20.48;5.05;;;;;;;26.23;56.77;100911.28;4994935;28;20034;-81
2022/07/04 07:54:01;;;;;;;9.10;3.53;;;;;;;26.12;56.53;100900.91;4995240;28;20104;-80
2022/07/04 07:56:27;;;;;;;21.25;4.13;;;;;;;26.13;57.03;100899.84;4995078;28;20031;-80
2022/07/04 07:58:52;;;;;;;13.55;5.07;;;;;;;26.14;57.26;100907.91;4994509;28;20053;-80
2022/07/04 08:01:20;;;;;;;14.88;4.65;;;;;;;26.02;57.03;100887.59;4994258;28;20160;-80
2022/07/04 08:06:30;;;;;;;15.57;4.22;;;;;;;26.26;56.98;100894.31;4994825;28;20037;-80
2022/07/04 08:08:55;;;;;;;8.63;3.15;;;;;;;26.21;56.17;100896.84;4994126;28;20030;-80
2022/07/04 08:11:21;;;;;;;8.75;3.70;;;;;;;26.16;56.04;100899.44;4994230;28;20088;-80
2022/07/04 08:13:47;;;;;;;27.48;4.70;;;;;;;26.23;55.70;100898.34;4993737;28;20030;-79
2022/07/04 08:16:12;;;;;;;25.35;4.57;;;;;;;26.25;55.05;100893.44;4993657;28;20415;-80
2022/07/04 08:18:38;;;;;;;17.05;3.95;;;;;;;26.36;55.50;100891.91;4993778;28;20444;-79
2022/07/04 08:21:04;;;;;;;21.58;3.80;;;;;;;26.54;53.52;100896.69;4993446;28;20105;-79
2022/07/04 08:23:31;;;;;;;19.50;5.22;;;;;;;26.70;53.78;100891.44;4993726;28;20031;-81
2022/07/04 08:25:58;;;;;;;18.25;3.97;;;;;;;26.79;50.94;100898.38;4976048;28;20029;-79
2022/07/04 08:28:23;;;;;;;7.38;3.25;;;;;;;26.85;49.44;100894.75;4993409;28;20058;-80
2022/07/04 08:30:49;;;;;;;6.85;3.22;;;;;;;26.93;48.93;100891.75;4993442;28;20120;-80
2022/07/04 08:33:14;;;;;;;6.30;2.53;;;;;;;26.95;45.92;100908.91;4993121;28;20022;-80
2022/07/04 08:35:39;;;;;;;8.05;2.20;;;;;;;26.82;41.27;100884.16;4992943;28;20453;-79
2022/07/04 08:38:05;;;;;;;7.75;2.10;;;;;;;26.92;37.96;100909.38;4993154;28;20041;-80
2022/07/04 08:40:31;;;;;;;4.13;2.08;;;;;;;26.99;39.30;100907.41;4993504;28;20037;-80
2022/07/04 08:42:57;;;;;;;4.03;1.90;;;;;;;26.98;39.14;100905.69;4994088;28;20038;-80
2022/07/04 08:45:28;;;;;;;7.10;2.75;;;;;;;27.13;42.95;100898.97;4993102;28;20353;-80
2022/07/04 08:48:03;;;;;;;8.60;2.85;;;;;;;27.18;44.57;100900.03;4992990;28;20041;-80
2022/07/04 08:50:36;;;;;;;7.55;2.47;;;;;;;27.31;44.98;100902.63;4992614;28;20473;-80
2022/07/04 08:53:09;;;;;;;12.30;2.88;;;;;;;27.45;45.16;100895.09;4992941;28;20053;-80
2022/07/04 08:58:31;;;;;;;5.40;1.50;;;;;;;27.66;34.15;100889.13;4993601;28;20120;-80
2022/07/04 09:01:07;;;;;;;7.15;1.83;;;;;;;27.77;30.63;100888.34;4994240;28;20135;-82
2022/07/04 09:03:34;;;;;;;11.90;2.03;;;;;;;27.84;35.21;100880.81;5000359;28;20030;-85
2022/07/04 09:06:04;;;;;;;12.27;2.80;;;;;;;27.96;35.89;100878.13;5001599;28;20057;-78
2022/07/04 09:08:30;;;;;;;9.55;2.70;;;;;;;28.05;38.39;100869.31;4996987;28;20037;-80
2022/07/04 09:10:55;;;;;;;7.85;3.05;;;;;;;28.15;43.30;100885.34;4993295;28;20030;-79
2022/07/04 09:13:21;;;;;;;6.55;2.65;;;;;;;28.00;44.14;100873.81;4999203;28;20041;-81
2022/07/04 09:15:50;;;;;;;10.00;2.88;;;;;;;28.07;42.17;100880.97;4998750;28;20065;-80
2022/07/04 09:18:25;;;;;;;8.35;2.22;;;;;;;28.08;39.44;100885.44;5004089;28;20039;-83
2022/07/04 09:21:00;;;;;;;11.73;2.42;;;;;;;28.18;39.29;100875.72;4984637;28;20515;-80
2022/07/04 09:23:28;;;;;;;8.18;2.63;;;;;;;28.13;40.90;100886.66;4993763;28;20022;-81
2022/07/04 09:26:15;;;;;;;10.82;2.72;;;;;;;28.30;40.14;100887.69;4993168;28;20022;-79
2022/07/04 09:28:51;;;;;;;8.65;2.83;;;;;;;28.42;42.24;100880.28;4991819;28;20221;-77
2022/07/04 09:31:25;;;;;;;13.40;3.90;;;;;;;28.51;42.92;100884.41;4990943;28;20033;-80
2022/07/04 09:33:57;;;;;;;10.73;2.75;;;;;;;28.48;44.11;100876.56;4992272;28;20034;-83
2022/07/04 09:36:28;;;;;;;17.55;3.70;;;;;;;28.63;44.71;100885.28;4992896;28;20110;-81
2022/07/04 09:39:21;;;;;;;13.98;2.40;;;;;;;28.63;42.16;100876.97;4993200;28;20428;-85
2022/07/04 09:42:01;;;;;;;6.28;2.20;;;;;;;28.69;40.89;100881.59;4993490;28;20031;-87
2022/07/04 09:44:33;;;;;;;7.20;2.42;;;;;;;28.69;41.34;100878.81;4993217;28;20460;-86
2022/07/04 09:46:59;;;;;;;11.57;2.20;;;;;;;28.60;40.21;100883.81;4993613;28;20392;-84
2022/07/04 09:49:25;;;;;;;20.00;2.60;;;;;;;28.63;38.28;100882.50;4992961;28;20047;-87
2022/07/04 09:51:52;;;;;;;7.47;2.88;;;;;;;28.71;39.59;100873.06;4976267;28;20057;-87
2022/07/04 09:54:28;;;;;;;9.25;2.72;;;;;;;28.81;38.60;100878.84;4993535;28;20041;-86
2022/07/04 09:56:57;;;;;;;12.20;2.65;;;;;;;28.90;40.20;100888.47;4993703;28;20022;-86
2022/07/04 09:59:24;;;;;;;4.38;2.40;;;;;;;29.02;39.29;100881.88;4993057;28;20030;-88
2022/07/04 10:01:50;;;;;;;3.03;1.85;;;;;;;28.99;37.08;100862.16;4993026;28;20034;-86
2022/07/04 10:04:16;;;;;;;9.93;2.15;;;;;;;29.11;35.20;100885.97;4994489;28;20049;-87
2022/07/04 10:06:43;;;;;;;24.98;3.40;;;;;;;29.06;36.97;100883.09;4975814;28;20476;-87
2022/07/04 10:09:14;;;;;;;11.80;2.35;;;;;;;29.13;37.52;100883.84;4994280;28;20496;-87
2022/07/04 10:11:43;;;;;;;17.67;2.20;;;;;;;29.04;38.94;100876.97;5012550;28;20080;-85
2022/07/04 10:14:10;;;;;;;9.93;2.25;;;;;;;29.05;37.36;100886.94;5012565;28;20033;-84
2022/07/04 10:16:37;;;;;;;10.05;2.95;;;;;;;29.10;37.76;100889.00;5012540;28;20033;-84
2022/07/04 10:19:03;;;;;;;6.05;1.85;;;;;;;28.96;33.09;100877.28;5012871;28;20032;-84
2022/07/04 10:21:30;;;;;;;2.28;1.35;;;;;;;29.01;28.86;100879.38;5012672;28;20074;-86
2022/07/04 10:23:55;;;;;;;3.03;1.80;;;;;;;29.12;30.58;100887.69;5015520;28;20026;-84
2022/07/04 10:26:22;;;;;;;5.63;1.52;;;;;;;29.23;30.46;100883.25;5016255;28;20105;-84
2022/07/04 10:28:49;;;;;;;9.70;1.63;;;;;;;29.36;28.61;100887.69;5016038;28;20109;-84
2022/07/04 10:31:16;;;;;;;4.70;1.50;;;;;;;29.42;28.94;100886.72;5015988;28;20022;-85
2022/07/04 10:33:43;;;;;;;5.00;1.65;;;;;;;29.33;27.82;100885.41;5016509;28;20156;-86
2022/07/04 10:36:29;;;;;;;7.00;2.03;;;;;;;29.36;26.98;100871.06;5016995;28;20029;-85
2022/07/04 10:39:03;;;;;;;5.00;1.70;;;;;;;29.47;28.48;100887.72;5016938;28;20104;-83
2022/07/04 10:41:30;;;;;;;6.50;2.10;;;;;;;29.43;30.93;100882.88;5004931;28;20026;-84
2022/07/04 10:44:21;;;;;;;4.90;1.73;;;;;;;29.63;31.20;100877.81;5024392;28;20471;-84
2022/07/04 10:46:50;;;;;;;6.15;2.13;;;;;;;29.76;32.91;100880.31;5023161;28;20056;-85
2022/07/04 10:49:18;;;;;;;4.32;2.00;;;;;;;29.83;33.22;100892.16;5016698;28;20041;-84
2022/07/04 10:52:09;;;;;;;12.40;2.28;;;;;;;29.99;32.96;100887.75;5015673;28;20025;-86
2022/07/04 10:54:37;;;;;;;3.50;1.85;;;;;;;30.03;32.28;100888.97;5005158;28;20845;-83
2022/07/04 10:57:20;;;;;;;6.50;2.38;;;;;;;30.16;32.90;100872.84;5031444;28;20033;-85
2022/07/04 10:59:55;;;;;;;9.45;3.00;;;;;;;30.12;33.12;100873.63;5015656;28;20040;-85
2022/07/04 11:02:28;;;;;;;9.90;2.60;;;;;;;30.15;33.22;100876.72;5015378;28;20475;-84
2022/07/04 11:05:01;;;;;;;9.00;1.90;;;;;;;30.05;35.18;100870.13;5015488;28;20057;-85
2022/07/04 11:07:30;;;;;;;7.95;1.98;;;;;;;30.02;34.84;100871.47;5015644;28;20076;-85
2022/07/04 11:10:20;;;;;;;5.90;2.35;;;;;;;30.12;33.89;100868.88;5015687;28;20060;-85
2022/07/04 11:12:55;;;;;;;12.18;3.13;;;;;;;30.17;34.87;100857.06;5015309;28;20033;-84
2022/07/04 11:15:29;;;;;;;10.32;2.08;;;;;;;30.01;31.41;100864.22;5014995;28;20113;-86
2022/07/04 11:17:56;;;;;;;11.32;2.67;;;;;;;30.00;34.72;100854.22;5015430;28;20029;-85
2022/07/04 11:20:23;;;;;;;8.55;2.70;;;;;;;29.99;34.15;100854.47;5015056;28;20022;-86
2022/07/04 11:22:49;;;;;;;5.75;2.00;;;;;;;30.03;35.73;100856.50;5014642;28;20072;-86
2022/07/04 11:25:15;;;;;;;5.93;2.25;;;;;;;29.95;37.37;100856.91;5014888;28;20030;-85
2022/07/04 11:27:41;;;;;;;4.13;2.17;;;;;;;29.72;35.35;100859.72;5014864;28;20084;-85
2022/07/04 11:30:08;;;;;;;5.20;2.03;;;;;;;29.65;37.07;100836.81;5014944;28;20164;-85